createdAt,value
2022-11-06T00:01:13.578Z,97578.69
2022-11-06T00:04:15.111Z,97584.19
2022-11-06T00:07:16.610Z,97587.03
2022-11-06T00:10:18.831Z,97576.22
2022-11-06T00:13:20.339Z,97565.06
2022-11-06T00:16:22.008Z,97562.97
2022-11-06T00:19:23.530Z,97573.41
2022-11-06T00:22:25.174Z,97575.31
2022-11-06T00:25:26.671Z,97587.91
2022-11-06T00:28:28.189Z,97589.81
2022-11-06T00:31:32.920Z,97591.13
2022-11-06T00:34:35.035Z,97592.44
2022-11-06T00:37:36.633Z,97593.78
2022-11-06T00:40:38.246Z,97586.50
2022-11-06T00:43:40.635Z,97602.19
2022-11-06T00:46:42.145Z,97613.47
2022-11-06T00:49:43.666Z,97619.63
2022-11-06T00:52:45.308Z,97609.91
2022-11-06T00:55:46.820Z,97605.38
2022-11-06T00:58:48.714Z,97594.00
2022-11-06T01:01:50.405Z,97600.91
2022-11-06T01:04:52.015Z,97597.78
2022-11-06T01:07:53.477Z,97578.06
2022-11-06T01:10:54.955Z,97581.88
2022-11-06T01:13:59.513Z,97578.16
2022-11-06T01:17:01.026Z,97578.41
2022-11-06T01:20:04.791Z,97579.25
2022-11-06T01:23:06.313Z,97577.84
2022-11-06T01:26:09.710Z,97585.22
2022-11-06T01:29:15.122Z,97578.19
2022-11-06T01:32:16.661Z,97580.69
2022-11-06T01:35:18.098Z,97565.97
2022-11-06T01:38:19.585Z,97573.34
2022-11-06T01:41:24.863Z,97576.22
2022-11-06T01:44:55.619Z,97578.22
2022-11-06T01:47:57.234Z,97564.69
2022-11-06T01:50:59.055Z,97575.97
2022-11-06T01:54:02.962Z,97563.28
2022-11-06T01:57:05.166Z,97560.91
2022-11-06T02:00:07.581Z,97561.84
2022-11-06T02:03:10.041Z,97566.59
2022-11-06T02:06:12.016Z,97557.44
2022-11-06T02:09:14.760Z,97552.97
2022-11-06T02:12:47.934Z,97539.44
2022-11-06T02:16:03.939Z,97538.84
2022-11-06T02:19:30.426Z,97528.50
2022-11-06T02:22:56.866Z,97519.00
2022-11-06T02:26:17.010Z,97497.31
2022-11-06T02:29:22.562Z,97500.03
2022-11-06T02:32:50.714Z,97507.97
2022-11-06T02:36:03.094Z,97514.28
2022-11-06T02:39:11.016Z,97507.16
2022-11-06T02:42:16.345Z,97497.22
2022-11-06T02:45:19.849Z,97495.75
2022-11-06T02:48:28.383Z,97492.81
2022-11-06T02:51:34.293Z,97500.75
2022-11-06T02:54:41.568Z,97483.44
2022-11-06T02:57:49.282Z,97465.44
2022-11-06T03:01:00.238Z,97461.38
2022-11-06T03:04:07.655Z,97459.72
2022-11-06T03:07:18.467Z,97450.94
2022-11-06T03:10:21.052Z,97447.16
2022-11-06T03:13:32.047Z,97460.31
2022-11-06T03:16:53.673Z,97464.13
2022-11-06T03:20:13.515Z,97458.06
2022-11-06T03:23:27.902Z,97457.34
2022-11-06T03:26:35.953Z,97441.81
2022-11-06T03:30:03.819Z,97437.44
2022-11-06T03:33:27.830Z,97432.56
2022-11-06T03:36:42.377Z,97439.81
2022-11-06T03:39:50.606Z,97435.06
2022-11-06T03:42:57.131Z,97435.88
2022-11-06T03:46:02.019Z,97429.59
2022-11-06T03:49:10.129Z,97423.34
2022-11-06T03:52:18.946Z,97424.16
2022-11-06T03:55:26.658Z,97414.81
2022-11-06T03:58:34.007Z,97408.50
2022-11-06T04:01:42.426Z,97405.19
2022-11-06T04:04:51.265Z,97405.41
2022-11-06T04:08:15.244Z,97396.66
2022-11-06T04:11:39.270Z,97409.00
2022-11-06T04:14:44.676Z,97405.56
2022-11-06T04:17:46.317Z,97394.28
2022-11-06T04:21:27.672Z,97402.22
2022-11-06T04:25:21.319Z,97405.09
2022-11-06T04:28:44.009Z,97412.31
2022-11-06T04:31:57.512Z,97409.69
2022-11-06T04:35:10.136Z,97402.59
2022-11-06T04:38:27.201Z,97396.41
2022-11-06T04:42:01.358Z,97406.50
2022-11-06T04:45:08.475Z,97396.88
2022-11-06T04:48:11.271Z,97391.09
2022-11-06T04:51:14.399Z,97385.03
2022-11-06T04:54:16.513Z,97379.72
2022-11-06T04:57:18.097Z,97377.44
2022-11-06T05:00:19.807Z,97381.47
2022-11-06T05:03:21.255Z,97384.56
2022-11-06T05:06:28.736Z,97387.16
2022-11-06T05:09:31.632Z,97397.72
2022-11-06T05:12:33.179Z,97390.72
2022-11-06T05:15:34.795Z,97369.75
2022-11-06T05:18:36.382Z,97375.06
2022-11-06T05:21:56.720Z,97376.03
2022-11-06T05:24:58.197Z,97370.34
2022-11-06T05:28:01.062Z,97370.47
2022-11-06T05:31:02.963Z,97352.47
2022-11-06T05:34:04.581Z,97357.78
2022-11-06T05:37:06.082Z,97359.53
2022-11-06T05:40:11.276Z,97348.56
2022-11-06T05:43:13.015Z,97341.78
2022-11-06T05:46:35.749Z,97335.16
2022-11-06T05:49:36.116Z,97353.16
2022-11-06T05:52:37.938Z,97354.22
2022-11-06T05:55:39.559Z,97351.72
2022-11-06T05:58:41.086Z,97349.97
2022-11-06T06:01:42.776Z,97338.59
2022-11-06T06:04:44.405Z,97333.75
2022-11-06T06:07:45.888Z,97325.22
2022-11-06T06:10:48.135Z,97324.84
2022-11-06T06:13:49.618Z,97311.72
2022-11-06T06:16:51.124Z,97297.88
2022-11-06T06:19:53.027Z,97292.06
2022-11-06T06:22:56.109Z,97280.56
2022-11-06T06:25:57.681Z,97273.44
2022-11-06T06:28:59.196Z,97260.41
2022-11-06T06:32:00.731Z,97258.66
2022-11-06T06:35:02.220Z,97247.03
2022-11-06T06:38:03.714Z,97229.41
2022-11-06T06:41:07.142Z,97222.28
2022-11-06T06:44:08.758Z,97218.34
2022-11-06T06:47:10.239Z,97205.22
2022-11-06T06:50:11.809Z,97206.38
2022-11-06T06:53:13.311Z,97208.38
2022-11-06T06:56:15.627Z,97196.84
2022-11-06T06:59:17.217Z,97189.19
2022-11-06T07:02:19.076Z,97182.38
2022-11-06T07:05:20.866Z,97168.22
2022-11-06T07:08:22.357Z,97159.13
2022-11-06T07:11:23.891Z,97154.28
2022-11-06T07:14:25.433Z,97139.91
2022-11-06T07:17:27.716Z,97129.91
2022-11-06T07:20:29.699Z,97140.34
2022-11-06T07:23:31.235Z,97149.34
2022-11-06T07:26:32.706Z,97138.53
2022-11-06T07:29:34.221Z,97132.25
2022-11-06T07:32:35.746Z,97130.50
2022-11-06T07:35:37.273Z,97140.00
2022-11-06T07:38:40.654Z,97148.53
2022-11-06T07:41:42.188Z,97161.38
2022-11-06T07:44:43.690Z,97184.66
2022-11-06T07:47:45.236Z,97201.16
2022-11-06T07:50:46.704Z,97209.72
2022-11-06T07:53:48.190Z,97217.03
2022-11-06T07:56:49.707Z,97224.59
2022-11-06T07:59:51.263Z,97225.59
2022-11-06T08:02:53.478Z,97221.06
2022-11-06T08:05:55.102Z,97235.25
2022-11-06T08:08:59.010Z,97236.47
2022-11-06T08:12:00.793Z,97233.50
2022-11-06T08:15:02.758Z,97226.28
2022-11-06T08:18:05.730Z,97237.13
2022-11-06T08:21:07.856Z,97234.09
2022-11-06T08:24:09.781Z,97249.50
2022-11-06T08:27:11.266Z,97257.28
2022-11-06T08:30:12.884Z,97267.63
2022-11-06T08:33:14.353Z,97264.50
2022-11-06T08:36:16.787Z,97280.53
2022-11-06T08:39:18.319Z,97288.78
2022-11-06T08:42:19.943Z,97282.44
2022-11-06T08:45:21.458Z,97276.66
2022-11-06T08:48:23.017Z,97274.66
2022-11-06T08:51:24.577Z,97270.00
2022-11-06T08:54:26.394Z,97249.72
2022-11-06T08:57:28.314Z,97243.38
2022-11-06T09:00:35.644Z,97231.38
2022-11-06T09:03:37.181Z,97210.38
2022-11-06T09:06:38.794Z,97205.34
2022-11-06T09:09:40.266Z,97205.56
2022-11-06T09:12:41.937Z,97188.63
2022-11-06T09:15:43.486Z,97184.66
2022-11-06T09:18:44.959Z,97170.44
2022-11-06T09:21:51.849Z,97155.09
2022-11-06T09:25:03.706Z,97128.59
2022-11-06T09:28:06.006Z,97101.50
2022-11-06T09:31:10.511Z,97104.19
2022-11-06T09:34:12.073Z,97090.22
2022-11-06T09:37:13.606Z,97076.31
2022-11-06T09:40:24.500Z,97069.06
2022-11-06T09:47:23.467Z,97046.34
2022-11-06T09:50:29.555Z,97035.78
2022-11-06T09:53:42.574Z,97042.16
2022-11-06T09:56:49.786Z,97036.34
2022-11-06T09:59:51.683Z,97030.19
2022-11-06T10:02:55.789Z,97028.50
2022-11-06T10:05:57.665Z,97020.22
2022-11-06T10:09:05.995Z,96999.38
2022-11-06T10:12:07.669Z,97009.84
2022-11-06T10:15:24.792Z,96991.63
2022-11-06T10:18:33.725Z,96976.13
2022-11-06T10:21:38.164Z,96988.28
2022-11-06T10:24:47.005Z,96996.75
2022-11-06T10:28:03.647Z,96991.34
2022-11-06T10:31:30.064Z,96988.81
2022-11-06T10:34:39.797Z,97000.81
2022-11-06T10:37:50.592Z,96993.63
2022-11-06T10:40:53.995Z,96995.50
2022-11-06T10:44:02.722Z,96980.59
2022-11-06T10:47:13.023Z,96992.44
2022-11-06T10:50:16.993Z,96993.16
2022-11-06T10:53:33.384Z,96976.28
2022-11-06T10:57:19.580Z,96953.03
2022-11-06T11:00:21.115Z,96955.00
2022-11-06T11:03:34.206Z,96953.00
2022-11-06T11:06:39.760Z,96943.81
2022-11-06T11:09:41.311Z,96946.91
2022-11-06T11:12:45.738Z,96957.41
2022-11-06T11:15:47.861Z,96940.81
2022-11-06T11:18:51.034Z,96944.34
2022-11-06T11:21:58.618Z,96938.22
2022-11-06T11:25:09.055Z,96931.19
2022-11-06T11:28:22.098Z,96918.16
2022-11-06T11:31:34.933Z,96913.59
2022-11-06T11:34:49.371Z,96908.09
2022-11-06T11:38:06.946Z,96914.88
2022-11-06T11:41:32.540Z,96918.28
2022-11-06T11:44:34.079Z,96921.09
2022-11-06T11:47:37.598Z,96907.41
2022-11-06T11:50:39.827Z,96908.94
2022-11-06T11:53:50.447Z,96894.47
2022-11-06T11:57:05.269Z,96886.78
2022-11-06T12:00:16.574Z,96888.72
2022-11-06T12:03:19.021Z,96888.88
2022-11-06T12:06:20.615Z,96877.69
2022-11-06T12:09:23.192Z,96863.94
2022-11-06T12:12:35.015Z,96862.84
2022-11-06T12:15:58.582Z,96864.38
2022-11-06T12:19:05.421Z,96869.50
2022-11-06T12:22:15.147Z,96868.06
2022-11-06T12:25:22.384Z,96874.94
2022-11-06T12:28:26.043Z,96880.88
2022-11-06T12:31:41.892Z,96873.09
2022-11-06T12:35:02.032Z,96873.75
2022-11-06T12:38:34.648Z,96876.22
2022-11-06T12:41:40.639Z,96871.69
2022-11-06T12:44:42.244Z,96873.56
2022-11-06T12:47:59.263Z,96874.63
2022-11-06T12:51:06.554Z,96868.16
2022-11-06T12:54:27.535Z,96866.44
2022-11-06T12:57:28.939Z,96871.31
2022-11-06T13:00:58.063Z,96858.78
2022-11-06T13:04:28.461Z,96851.50
2022-11-06T13:07:44.950Z,96851.41
2022-11-06T13:11:04.779Z,96851.28
2022-11-06T13:14:22.365Z,96852.84
2022-11-06T13:17:49.484Z,96853.44
2022-11-06T13:21:15.948Z,96852.94
2022-11-06T13:24:42.636Z,96846.53
2022-11-06T13:27:58.691Z,96845.72
2022-11-06T13:31:03.475Z,96839.06
2022-11-06T13:34:07.539Z,96835.25
2022-11-06T13:37:19.338Z,96821.56
2022-11-06T13:40:26.933Z,96824.13
2022-11-06T13:43:42.621Z,96823.59
2022-11-06T13:46:53.310Z,96827.53
2022-11-06T13:50:13.074Z,96823.94
2022-11-06T13:53:24.461Z,96827.44
2022-11-06T13:57:02.675Z,96837.34
2022-11-06T14:00:25.480Z,96838.97
2022-11-06T14:03:44.099Z,96839.69
2022-11-06T14:06:47.669Z,96834.94
2022-11-06T14:09:49.593Z,96835.34
2022-11-06T14:12:51.678Z,96843.09
2022-11-06T14:16:04.445Z,96840.00
2022-11-06T14:19:32.675Z,96829.16
2022-11-06T14:22:36.763Z,96842.00
2022-11-06T14:25:41.280Z,96837.69
2022-11-06T14:28:44.676Z,96843.50
2022-11-06T14:32:02.923Z,96857.19
2022-11-06T14:35:29.503Z,96860.09
2022-11-06T14:38:33.905Z,96854.53
2022-11-06T14:41:35.454Z,96863.47
2022-11-06T14:45:14.542Z,96840.31
2022-11-06T14:48:36.576Z,96846.66
2022-11-06T14:51:38.502Z,96847.56
2022-11-06T14:55:05.044Z,96834.94
2022-11-06T14:58:23.906Z,96836.31
2022-11-06T15:01:31.688Z,96835.31
2022-11-06T15:04:35.112Z,96833.78
2022-11-06T15:08:04.090Z,96848.72
2022-11-06T15:11:01.377Z,96844.88
2022-11-06T15:14:09.084Z,96829.97
2022-11-06T15:17:15.298Z,96840.81
2022-11-06T15:20:21.932Z,96844.06
2022-11-06T15:23:24.811Z,96828.47
2022-11-06T15:26:37.639Z,96829.22
2022-11-06T15:29:42.644Z,96818.38
2022-11-06T15:32:46.474Z,96813.53
2022-11-06T15:35:49.695Z,96813.06
2022-11-06T15:38:51.412Z,96820.81
2022-11-06T15:41:53.200Z,96823.16
2022-11-06T15:45:07.939Z,96815.59
2022-11-06T15:48:21.963Z,96824.88
2022-11-06T15:51:31.249Z,96819.97
2022-11-06T15:54:37.381Z,96821.47
2022-11-06T15:57:39.003Z,96819.84
2022-11-06T16:00:44.435Z,96813.09
2022-11-06T16:03:54.601Z,96818.56
2022-11-06T16:06:57.297Z,96823.19
2022-11-06T16:09:59.026Z,96819.56
2022-11-06T16:13:03.027Z,96816.13
2022-11-06T16:16:04.928Z,96816.97
2022-11-06T16:19:27.580Z,96815.47
2022-11-06T16:22:31.895Z,96814.03
2022-11-06T16:25:33.438Z,96815.38
2022-11-06T16:28:35.683Z,96823.34
2022-11-06T16:31:37.886Z,96834.53
2022-11-06T16:34:45.982Z,96832.81
2022-11-06T16:37:47.498Z,96839.91
2022-11-06T16:40:52.538Z,96851.63
2022-11-06T16:44:31.337Z,96844.03
2022-11-06T16:47:33.585Z,96847.41
2022-11-06T16:50:46.150Z,96850.28
2022-11-06T16:53:54.936Z,96843.00
2022-11-06T16:57:09.743Z,96858.81
2022-11-06T17:00:20.271Z,96858.81
2022-11-06T17:03:23.056Z,96850.75
2022-11-06T17:06:28.099Z,96862.41
2022-11-06T17:09:32.623Z,96873.59
2022-11-06T17:12:34.117Z,96885.78
2022-11-06T17:15:35.598Z,96889.06
2022-11-06T17:18:42.248Z,96902.41
2022-11-06T17:21:43.953Z,96914.72
2022-11-06T17:24:45.626Z,96916.16
2022-11-06T17:27:47.293Z,96924.69
2022-11-06T17:30:48.885Z,96927.72
2022-11-06T17:33:51.333Z,96940.41
2022-11-06T17:36:52.919Z,96937.09
2022-11-06T17:39:54.442Z,96939.63
2022-11-06T17:42:55.929Z,96943.66
2022-11-06T17:45:57.646Z,96952.63
2022-11-06T17:49:00.073Z,96946.28
2022-11-06T17:52:01.983Z,96947.72
2022-11-06T17:55:03.963Z,96947.78
2022-11-06T17:58:05.724Z,96967.00
2022-11-06T18:01:10.795Z,96970.09
2022-11-06T18:04:12.534Z,96963.03
2022-11-06T18:07:14.090Z,96977.91
2022-11-06T18:10:15.649Z,96986.88
2022-11-06T18:13:17.211Z,97004.63
2022-11-06T18:16:25.111Z,97020.88
2022-11-06T18:19:27.126Z,97030.44
2022-11-06T18:22:28.686Z,97018.22
2022-11-06T18:25:30.534Z,97016.28
2022-11-06T18:28:32.145Z,97009.06
2022-11-06T18:31:34.946Z,97003.34
2022-11-06T18:34:36.484Z,97021.47
2022-11-06T18:37:38.059Z,97051.47
2022-11-06T18:40:41.018Z,97023.75
2022-11-06T18:43:42.937Z,97030.63
2022-11-06T18:46:46.040Z,97058.34
2022-11-06T18:49:47.573Z,97045.59
2022-11-06T18:52:57.751Z,97070.44
2022-11-06T18:56:00.272Z,97074.81
2022-11-06T18:59:02.072Z,97064.69
2022-11-06T19:02:03.838Z,97063.78
2022-11-06T19:05:06.043Z,97069.81
2022-11-06T19:08:07.832Z,97061.66
2022-11-06T19:11:09.535Z,97053.72
2022-11-06T19:14:11.087Z,97056.59
2022-11-06T19:17:12.585Z,97053.94
2022-11-06T19:20:15.183Z,97051.31
2022-11-06T19:23:17.153Z,97033.16
2022-11-06T19:26:31.218Z,97037.59
2022-11-06T19:29:33.107Z,97063.41
2022-11-06T19:32:34.857Z,97059.78
2022-11-06T19:35:36.707Z,97060.75
2022-11-06T19:38:38.467Z,97063.69
2022-11-06T19:41:40.047Z,97055.69
2022-11-06T19:44:41.562Z,97054.03
2022-11-06T19:47:43.170Z,97051.28
2022-11-06T19:50:59.564Z,97050.63
2022-11-06T19:54:01.803Z,97056.81
2022-11-06T19:57:29.069Z,97061.47
2022-11-06T20:00:25.129Z,97053.19
2022-11-06T20:03:26.649Z,97048.28
2022-11-06T20:06:28.333Z,97052.31
2022-11-06T20:09:30.105Z,97049.47
2022-11-06T20:12:32.196Z,97053.47
2022-11-06T20:15:34.036Z,97065.94
2022-11-06T20:18:36.168Z,97061.22
2022-11-06T20:21:37.664Z,97079.44
2022-11-06T20:24:41.475Z,97087.69
2022-11-06T20:27:43.451Z,97074.16
2022-11-06T20:30:45.591Z,97072.72
2022-11-06T20:33:48.268Z,97067.25
2022-11-06T20:36:49.803Z,97067.81
2022-11-06T20:39:52.135Z,97063.28
2022-11-06T20:42:53.680Z,97065.13
2022-11-06T20:45:55.235Z,97082.47
2022-11-06T20:48:58.243Z,97065.41
2022-11-06T20:52:13.613Z,97065.41
2022-11-06T20:55:15.578Z,97066.03
2022-11-06T20:58:17.128Z,97061.94
2022-11-06T21:01:22.035Z,97061.56
2022-11-06T21:04:23.624Z,97064.66
2022-11-06T21:07:25.178Z,97072.22
2022-11-06T21:10:26.735Z,97067.81
2022-11-06T21:13:29.787Z,97076.00
2022-11-06T21:16:34.685Z,97096.00
2022-11-06T21:19:36.958Z,97083.06
2022-11-06T21:22:38.513Z,97095.06
2022-11-06T21:25:44.931Z,97078.75
2022-11-06T21:28:47.162Z,97105.34
2022-11-06T21:31:49.438Z,97113.91
2022-11-06T21:34:50.949Z,97122.47
2022-11-06T21:37:52.416Z,97138.88
2022-11-06T21:40:53.869Z,97108.41
2022-11-06T21:43:56.200Z,97130.59
2022-11-06T21:46:57.734Z,97129.69
2022-11-06T21:49:59.244Z,97156.16
2022-11-06T21:53:19.338Z,97157.09
2022-11-06T21:56:25.831Z,97148.72
2022-11-06T21:59:29.285Z,97159.59
2022-11-06T22:02:30.919Z,97163.63
2022-11-06T22:05:32.815Z,97181.50
2022-11-06T22:08:39.314Z,97179.03
2022-11-06T22:11:43.945Z,97170.09
2022-11-06T22:14:45.398Z,97160.69
2022-11-06T22:17:46.998Z,97169.16
2022-11-06T22:20:48.450Z,97169.91
2022-11-06T22:23:50.555Z,97169.44
2022-11-06T22:26:54.876Z,97170.09
2022-11-06T22:29:56.479Z,97172.56
2022-11-06T22:32:58.015Z,97173.75
2022-11-06T22:36:02.438Z,97179.13
2022-11-06T22:39:06.436Z,97164.72
2022-11-06T22:42:08.881Z,97173.00
2022-11-06T22:45:10.963Z,97168.75
2022-11-06T22:48:12.555Z,97188.81
2022-11-06T22:51:16.584Z,97188.63
2022-11-06T22:54:18.078Z,97185.31
2022-11-06T22:57:19.637Z,97185.78
2022-11-06T23:00:22.499Z,97184.75
2022-11-06T23:03:26.696Z,97182.53
2022-11-06T23:06:28.608Z,97179.97
2022-11-06T23:09:30.209Z,97180.88
2022-11-06T23:12:32.442Z,97180.31
2022-11-06T23:15:34.245Z,97182.47
2022-11-06T23:18:36.068Z,97194.53
2022-11-06T23:21:37.727Z,97164.34
2022-11-06T23:24:39.324Z,97181.72
2022-11-06T23:27:47.037Z,97176.97
2022-11-06T23:30:53.867Z,97170.97
2022-11-06T23:33:55.974Z,97190.22
2022-11-06T23:36:57.422Z,97181.72
2022-11-06T23:39:58.986Z,97187.47
2022-11-06T23:43:00.476Z,97184.25
2022-11-06T23:46:02.227Z,97175.56
2022-11-06T23:49:03.723Z,97214.56
2022-11-06T23:52:05.252Z,97201.47
2022-11-06T23:55:07.177Z,97184.72
2022-11-06T23:58:08.732Z,97179.19
